createdAt,value
2023-05-06T00:01:03.877Z,62.10
2023-05-06T00:04:11.581Z,62.30
2023-05-06T00:07:11.326Z,62.10
2023-05-06T00:10:07.951Z,61.80
2023-05-06T00:19:37.149Z,62.10
2023-05-06T00:22:14.822Z,62.10
2023-05-06T00:25:02.640Z,62.20
2023-05-06T00:27:56.296Z,62.60
2023-05-06T00:30:54.733Z,62.30
2023-05-06T00:33:38.726Z,62.20
2023-05-06T00:52:24.660Z,62.10
2023-05-06T00:55:03.838Z,62.00
2023-05-06T01:05:06.623Z,62.50
2023-05-06T01:08:59.052Z,62.70
2023-05-06T01:16:11.114Z,62.60
2023-05-06T01:22:17.343Z,62.70
2023-05-06T01:25:11.338Z,62.40
2023-05-06T01:28:33.366Z,62.30
2023-05-06T01:32:27.329Z,62.50
2023-05-06T01:35:57.328Z,63.00
2023-05-06T01:39:10.587Z,63.00
2023-05-06T01:42:59.336Z,63.30
2023-05-06T01:48:52.635Z,63.20
2023-05-06T01:58:36.296Z,63.40
2023-05-06T02:02:03.977Z,63.00
2023-05-06T02:07:37.663Z,63.10
2023-05-06T02:11:01.737Z,63.10
2023-05-06T02:23:30.459Z,63.70
2023-05-06T02:30:38.141Z,62.90
2023-05-06T02:33:49.165Z,63.30
2023-05-06T02:43:22.754Z,62.80
2023-05-06T02:46:06.222Z,63.10
2023-05-06T02:49:08.959Z,62.90
2023-05-06T02:55:09.770Z,63.00
2023-05-06T02:58:17.148Z,63.70
2023-05-06T03:01:12.838Z,63.20
2023-05-06T03:10:57.836Z,63.60
2023-05-06T03:14:07.390Z,63.50
2023-05-06T03:17:07.993Z,63.50
2023-05-06T03:22:59.773Z,63.00
2023-05-06T03:29:34.553Z,63.20
2023-05-06T03:34:59.346Z,63.60
2023-05-06T03:38:14.176Z,63.40
2023-05-06T03:50:36.184Z,63.60
2023-05-06T03:53:49.851Z,63.50
2023-05-06T03:56:47.856Z,63.30
2023-05-06T04:02:17.989Z,63.30
2023-05-06T04:04:53.467Z,63.30
2023-05-06T04:10:52.792Z,63.60
2023-05-06T04:13:34.354Z,64.10
2023-05-06T04:16:20.717Z,63.70
2023-05-06T04:19:12.695Z,63.60
2023-05-06T04:24:36.225Z,63.70
2023-05-06T04:36:44.466Z,64.10
2023-05-06T04:39:44.354Z,64.30
2023-05-06T04:45:40.737Z,64.00
2023-05-06T04:48:11.680Z,64.20
2023-05-06T04:51:26.263Z,64.20
2023-05-06T04:54:24.732Z,65.00
2023-05-06T04:57:29.294Z,64.20
2023-05-06T05:00:24.443Z,64.20
2023-05-06T05:06:17.936Z,64.30
2023-05-06T05:21:48.825Z,65.00
2023-05-06T05:30:31.373Z,65.60
2023-05-06T05:36:24.636Z,64.90
2023-05-06T05:39:19.801Z,64.70
2023-05-06T05:48:19.328Z,64.70
2023-05-06T05:51:14.100Z,64.80
2023-05-06T05:54:02.169Z,65.10
2023-05-06T06:00:36.028Z,65.40
2023-05-06T06:03:11.459Z,65.00
2023-05-06T06:05:45.605Z,65.10
2023-05-06T06:08:42.205Z,65.10
2023-05-06T06:11:47.724Z,65.50
2023-05-06T06:17:24.754Z,65.30
2023-05-06T06:23:23.836Z,65.10
2023-05-06T06:26:12.337Z,65.80
2023-05-06T06:31:51.649Z,65.90
2023-05-06T06:37:56.397Z,65.70
2023-05-06T06:40:49.570Z,65.80
2023-05-06T06:47:09.703Z,65.30
2023-05-06T06:49:45.833Z,65.40
2023-05-06T06:56:01.577Z,65.90
2023-05-06T07:01:58.397Z,65.90
2023-05-06T07:05:16.896Z,65.60
2023-05-06T07:11:26.632Z,65.20
2023-05-06T07:17:15.244Z,65.20
2023-05-06T07:23:17.482Z,65.60
2023-05-06T07:29:28.206Z,65.60
2023-05-06T07:38:33.040Z,65.40
2023-05-06T07:41:22.626Z,65.90
2023-05-06T07:48:06.703Z,66.00
2023-05-06T07:52:08.650Z,66.10
2023-05-06T07:55:14.398Z,66.50
2023-05-06T08:00:43.040Z,66.00
2023-05-06T08:04:05.003Z,66.00
2023-05-06T08:08:12.836Z,66.50
2023-05-06T08:11:09.329Z,66.20
2023-05-06T08:14:56.474Z,65.90
2023-05-06T08:38:53.572Z,64.80
2023-05-06T08:44:38.824Z,64.90
2023-05-06T08:47:05.951Z,64.60
2023-05-06T08:49:32.984Z,64.40
2023-05-06T08:52:04.491Z,64.40
2023-05-06T08:54:38.228Z,64.30
2023-05-06T08:57:12.187Z,64.00
2023-05-06T08:59:41.786Z,64.10
2023-05-06T09:02:10.625Z,63.90
2023-05-06T09:04:37.751Z,63.60
2023-05-06T09:07:04.556Z,63.80
2023-05-06T09:09:31.461Z,63.90
2023-05-06T09:12:02.202Z,63.60
2023-05-06T09:14:29.012Z,63.60
2023-05-06T09:16:55.841Z,63.50
2023-05-06T09:19:23.298Z,63.10
2023-05-06T09:21:51.560Z,63.20
2023-05-06T09:24:19.403Z,63.40
2023-05-06T09:26:47.440Z,62.80
2023-05-06T09:29:14.404Z,62.30
2023-05-06T09:31:48.409Z,61.60
2023-05-06T09:34:17.378Z,60.80
2023-05-06T09:36:44.728Z,61.20
2023-05-06T09:39:11.634Z,61.40
2023-05-06T09:41:38.758Z,61.60
2023-05-06T09:44:06.191Z,61.80
2023-05-06T09:46:33.430Z,61.90
2023-05-06T09:49:01.523Z,61.70
2023-05-06T09:51:28.613Z,61.50
2023-05-06T09:54:15.820Z,61.40
2023-05-06T09:56:46.465Z,61.20
2023-05-06T09:59:18.727Z,61.20
2023-05-06T10:01:45.947Z,60.90
2023-05-06T10:04:15.681Z,60.60
2023-05-06T10:06:44.209Z,60.80
2023-05-06T10:09:12.227Z,60.60
2023-05-06T10:11:39.654Z,60.60
2023-05-06T10:14:07.649Z,60.10
2023-05-06T10:16:37.035Z,60.60
2023-05-06T10:19:07.416Z,60.00
2023-05-06T10:21:44.661Z,59.80
2023-05-06T10:24:16.287Z,59.70
2023-05-06T10:26:46.860Z,60.50
2023-05-06T10:29:14.064Z,59.60
2023-05-06T10:31:51.664Z,59.50
2023-05-06T10:34:21.422Z,58.80
2023-05-06T10:36:57.393Z,59.00
2023-05-06T10:39:26.015Z,58.50
2023-05-06T10:41:53.052Z,58.90
2023-05-06T10:45:18.412Z,58.90
2023-05-06T10:47:57.741Z,58.20
2023-05-06T10:50:26.828Z,57.80
2023-05-06T10:53:01.716Z,58.50
2023-05-06T10:55:36.688Z,58.30
2023-05-06T10:58:15.221Z,58.60
2023-05-06T11:00:42.847Z,57.40
2023-05-06T11:03:13.933Z,57.90
2023-05-06T11:05:54.792Z,57.10
2023-05-06T11:08:26.479Z,57.50
2023-05-06T11:10:54.678Z,57.10
2023-05-06T11:13:29.730Z,57.40
2023-05-06T11:15:58.332Z,57.20
2023-05-06T11:18:25.218Z,57.60
2023-05-06T11:21:02.438Z,57.60
2023-05-06T11:23:52.202Z,57.20
2023-05-06T11:26:19.521Z,56.70
2023-05-06T11:28:49.054Z,57.60
2023-05-06T11:31:16.102Z,57.20
2023-05-06T11:33:48.835Z,57.10
2023-05-06T11:36:18.055Z,56.30
2023-05-06T11:38:52.929Z,56.70
2023-05-06T11:41:23.327Z,56.10
2023-05-06T11:43:52.645Z,56.60
2023-05-06T11:46:21.758Z,56.20
2023-05-06T11:48:50.357Z,56.20
2023-05-06T11:51:22.855Z,55.90
2023-05-06T11:53:49.713Z,55.10
2023-05-06T11:56:16.744Z,55.60
2023-05-06T11:58:44.113Z,55.60
2023-05-06T12:01:10.898Z,55.70
2023-05-06T12:03:37.999Z,56.20
2023-05-06T12:06:05.376Z,55.50
2023-05-06T12:08:37.575Z,55.50
2023-05-06T12:11:08.213Z,54.60
2023-05-06T12:13:36.994Z,54.50
2023-05-06T12:16:05.905Z,54.90
2023-05-06T12:18:33.312Z,54.30
2023-05-06T12:21:06.077Z,54.60
2023-05-06T12:23:33.562Z,54.40
2023-05-06T12:26:06.937Z,54.20
2023-05-06T12:28:36.564Z,53.30
2023-05-06T12:31:24.380Z,53.60
2023-05-06T12:33:51.409Z,53.40
2023-05-06T12:36:19.508Z,53.90
2023-05-06T12:38:55.095Z,53.80
2023-05-06T12:41:36.323Z,52.50
2023-05-06T12:44:04.174Z,53.20
2023-05-06T12:46:31.178Z,53.40
2023-05-06T12:49:03.123Z,53.40
2023-05-06T12:51:33.519Z,53.00
2023-05-06T12:54:00.406Z,53.60
2023-05-06T12:56:27.186Z,53.20
2023-05-06T12:59:02.384Z,53.20
2023-05-06T13:01:29.802Z,51.70
2023-05-06T13:03:58.088Z,52.30
2023-05-06T13:06:25.214Z,52.30
2023-05-06T13:08:51.980Z,52.40
2023-05-06T13:11:18.964Z,52.80
2023-05-06T13:13:45.900Z,52.70
2023-05-06T13:16:12.863Z,52.30
2023-05-06T13:18:40.078Z,52.50
2023-05-06T13:21:06.915Z,52.50
2023-05-06T13:23:35.051Z,52.60
2023-05-06T13:26:06.059Z,51.80
2023-05-06T13:28:36.532Z,51.50
2023-05-06T13:31:03.752Z,51.60
2023-05-06T13:33:30.649Z,51.80
2023-05-06T13:35:57.635Z,52.10
2023-05-06T13:38:24.542Z,51.60
2023-05-06T13:40:53.275Z,51.50
2023-05-06T13:43:22.097Z,51.40
2023-05-06T13:45:48.976Z,51.00
2023-05-06T13:48:16.079Z,50.40
2023-05-06T13:50:47.321Z,50.90
2023-05-06T13:53:15.165Z,50.80
2023-05-06T13:55:43.354Z,50.50
2023-05-06T13:58:11.084Z,50.40
2023-05-06T14:00:38.384Z,50.50
2023-05-06T14:03:05.485Z,50.50
2023-05-06T14:05:35.566Z,50.50
2023-05-06T14:08:03.767Z,50.20
2023-05-06T14:10:30.577Z,50.40
2023-05-06T14:12:57.492Z,49.80
2023-05-06T14:15:24.416Z,50.00
2023-05-06T14:18:01.627Z,49.50
2023-05-06T14:20:28.586Z,48.80
2023-05-06T14:22:55.498Z,49.10
2023-05-06T14:25:27.068Z,49.10
2023-05-06T14:27:55.506Z,49.30
2023-05-06T14:30:22.679Z,48.80
2023-05-06T14:32:57.872Z,48.90
2023-05-06T14:35:24.959Z,49.60
2023-05-06T14:37:51.981Z,48.80
2023-05-06T14:40:18.923Z,48.70
2023-05-06T14:42:46.213Z,48.70
2023-05-06T14:45:13.815Z,48.20
2023-05-06T14:47:40.970Z,47.90
2023-05-06T14:50:09.328Z,48.00
2023-05-06T14:52:40.779Z,47.90
2023-05-06T14:55:10.965Z,48.50
2023-05-06T14:57:38.586Z,47.80
2023-05-06T15:00:10.196Z,48.30
2023-05-06T15:02:38.351Z,47.50
2023-05-06T15:05:06.759Z,47.80
2023-05-06T15:07:33.620Z,47.90
2023-05-06T15:10:00.820Z,47.80
2023-05-06T15:12:27.828Z,47.80
2023-05-06T15:14:54.817Z,47.80
2023-05-06T15:17:21.713Z,47.80
2023-05-06T15:19:48.638Z,47.30
2023-05-06T15:22:15.799Z,47.20
2023-05-06T15:24:43.063Z,47.20
2023-05-06T15:27:09.865Z,46.90
2023-05-06T15:29:39.024Z,47.00
2023-05-06T15:32:06.220Z,47.10
2023-05-06T15:34:33.292Z,47.00
2023-05-06T15:37:02.854Z,46.80
2023-05-06T15:39:36.817Z,46.60
2023-05-06T15:42:04.443Z,46.70
2023-05-06T15:44:33.435Z,46.40
2023-05-06T15:47:00.748Z,46.30
2023-05-06T15:52:00.585Z,46.60
2023-05-06T15:54:27.663Z,46.10
2023-05-06T15:56:54.468Z,46.20
2023-05-06T15:59:21.345Z,46.50
2023-05-06T16:04:17.962Z,46.10
2023-05-06T16:06:44.877Z,46.10
2023-05-06T16:09:11.934Z,46.10
2023-05-06T16:11:39.109Z,46.00
2023-05-06T16:14:06.026Z,46.00
2023-05-06T16:16:32.915Z,46.10
2023-05-06T16:18:59.829Z,45.90
2023-05-06T16:21:27.166Z,46.10
2023-05-06T16:23:54.289Z,46.20
2023-05-06T16:26:21.238Z,46.00
2023-05-06T16:28:48.021Z,46.20
2023-05-06T16:31:14.959Z,46.50
2023-05-06T16:33:41.845Z,45.90
2023-05-06T16:36:08.982Z,46.00
2023-05-06T16:38:36.482Z,45.80
2023-05-06T16:41:03.393Z,45.90
2023-05-06T16:43:30.356Z,45.90
2023-05-06T16:45:57.111Z,46.10
2023-05-06T16:48:24.160Z,46.10
2023-05-06T16:50:51.902Z,46.10
2023-05-06T16:53:18.864Z,46.20
2023-05-06T16:55:49.939Z,46.20
2023-05-06T16:58:16.890Z,46.10
2023-05-06T17:00:44.044Z,46.30
2023-05-06T17:03:11.631Z,46.10
2023-05-06T17:06:11.526Z,46.20
2023-05-06T17:08:59.964Z,46.00
2023-05-06T17:11:29.545Z,46.00
2023-05-06T17:13:56.442Z,46.40
2023-05-06T17:16:23.274Z,46.30
2023-05-06T17:18:50.089Z,46.40
2023-05-06T17:21:18.032Z,46.40
2023-05-06T17:23:44.861Z,46.50
2023-05-06T17:26:11.980Z,46.50
2023-05-06T17:28:38.876Z,46.60
2023-05-06T17:31:05.871Z,46.50
2023-05-06T17:33:32.729Z,46.50
2023-05-06T17:35:59.610Z,46.60
2023-05-06T17:38:26.533Z,46.50
2023-05-06T17:40:53.336Z,46.50
2023-05-06T17:43:20.233Z,46.60
2023-05-06T17:45:47.480Z,46.70
2023-05-06T17:48:14.283Z,46.70
2023-05-06T17:50:41.312Z,46.50
2023-05-06T17:53:08.294Z,46.70
2023-05-06T17:55:35.383Z,46.70
2023-05-06T17:58:02.179Z,46.70
2023-05-06T18:00:29.171Z,46.80
2023-05-06T18:02:56.142Z,46.80
2023-05-06T18:05:25.484Z,46.90
2023-05-06T18:07:52.778Z,46.90
2023-05-06T18:10:19.835Z,46.90
2023-05-06T18:12:46.994Z,46.90
2023-05-06T18:15:14.547Z,46.90
2023-05-06T18:17:42.442Z,46.90
2023-05-06T18:20:10.291Z,46.90
2023-05-06T18:22:37.179Z,47.00
2023-05-06T18:25:04.714Z,47.10
2023-05-06T18:27:32.410Z,47.10
2023-05-06T18:29:59.442Z,47.10
2023-05-06T18:32:26.401Z,47.30
2023-05-06T18:34:53.303Z,47.30
2023-05-06T18:37:20.161Z,47.40
2023-05-06T18:39:47.094Z,47.40
2023-05-06T18:42:13.984Z,47.50
2023-05-06T18:44:42.923Z,47.50
2023-05-06T18:47:09.733Z,47.60
2023-05-06T18:49:36.577Z,47.70
2023-05-06T18:52:04.592Z,47.80
2023-05-06T18:54:31.497Z,47.90
2023-05-06T18:56:58.658Z,47.90
2023-05-06T18:59:26.138Z,48.10
2023-05-06T19:01:52.963Z,48.20
2023-05-06T19:04:19.824Z,47.90
2023-05-06T19:06:46.702Z,48.20
2023-05-06T19:09:13.560Z,48.30
2023-05-06T19:11:40.359Z,48.50
2023-05-06T19:14:11.575Z,48.50
2023-05-06T19:16:38.520Z,48.60
2023-05-06T19:19:09.480Z,48.70
2023-05-06T19:21:46.001Z,48.60
2023-05-06T19:24:21.855Z,48.70
2023-05-06T19:27:18.001Z,48.90
2023-05-06T19:29:44.957Z,49.00
2023-05-06T19:32:11.796Z,48.90
2023-05-06T19:34:39.070Z,49.00
2023-05-06T19:37:05.900Z,49.00
2023-05-06T19:39:55.383Z,49.00
2023-05-06T19:42:22.254Z,49.10
2023-05-06T19:44:49.808Z,49.10
2023-05-06T19:47:16.739Z,49.30
2023-05-06T19:49:43.575Z,49.30
2023-05-06T19:52:10.510Z,49.40
2023-05-06T19:54:37.422Z,49.40
2023-05-06T19:57:04.267Z,49.50
2023-05-06T19:59:31.069Z,49.50
2023-05-06T20:02:01.635Z,49.70
2023-05-06T20:04:28.576Z,49.70
2023-05-06T20:06:55.711Z,49.80
2023-05-06T20:09:22.537Z,49.90
2023-05-06T20:11:49.384Z,49.90
2023-05-06T20:14:16.216Z,50.00
2023-05-06T20:16:43.504Z,50.00
2023-05-06T20:19:11.384Z,50.10
2023-05-06T20:21:40.222Z,50.10
2023-05-06T20:24:07.329Z,50.20
2023-05-06T20:26:34.170Z,50.30
2023-05-06T20:29:01.325Z,50.30
2023-05-06T20:31:28.181Z,50.40
2023-05-06T20:33:55.031Z,50.40
2023-05-06T20:36:21.862Z,50.50
2023-05-06T20:38:50.239Z,50.60
2023-05-06T20:41:17.136Z,50.70
2023-05-06T20:43:44.030Z,50.80
2023-05-06T20:46:11.070Z,50.80
2023-05-06T20:48:38.050Z,50.80
2023-05-06T20:51:04.913Z,50.80
2023-05-06T20:53:31.855Z,50.90
2023-05-06T20:55:58.777Z,51.00
2023-05-06T20:58:25.966Z,50.90
2023-05-06T21:00:52.925Z,51.00
2023-05-06T21:16:31.182Z,51.50
2023-05-06T22:31:35.218Z,53.40
2023-05-06T22:34:04.627Z,53.00
2023-05-06T22:36:34.690Z,53.20
2023-05-06T22:39:02.118Z,53.30
2023-05-06T22:41:30.789Z,53.40
2023-05-06T22:44:00.247Z,53.50
2023-05-06T22:46:29.110Z,53.70
2023-05-06T22:48:56.098Z,53.80
2023-05-06T22:51:23.241Z,53.90
2023-05-06T22:53:50.060Z,54.00
2023-05-06T22:56:17.289Z,54.00
2023-05-06T22:58:44.401Z,54.10
2023-05-06T23:01:12.039Z,54.10
2023-05-06T23:03:38.941Z,54.10
2023-05-06T23:06:06.251Z,54.20
2023-05-06T23:08:33.160Z,54.30
2023-05-06T23:11:00.012Z,54.20
2023-05-06T23:13:27.134Z,54.20
2023-05-06T23:15:54.328Z,54.20
2023-05-06T23:18:21.265Z,54.30
2023-05-06T23:20:48.246Z,54.20
2023-05-06T23:23:15.333Z,54.80
2023-05-06T23:25:42.224Z,54.20
2023-05-06T23:28:09.019Z,54.30
2023-05-06T23:30:35.870Z,54.30
2023-05-06T23:33:03.822Z,54.30
2023-05-06T23:35:30.917Z,54.50
2023-05-06T23:37:57.724Z,54.40
2023-05-06T23:40:24.561Z,54.40
2023-05-06T23:42:51.438Z,54.50
2023-05-06T23:45:19.667Z,54.60
2023-05-06T23:47:46.606Z,54.60
2023-05-06T23:50:14.101Z,54.80
2023-05-06T23:52:41.278Z,54.80
2023-05-06T23:55:09.006Z,54.90
2023-05-06T23:57:36.499Z,54.90
